Time;durP1;ratioP1;P1;durP2;ratioP2;P2;SDS_P1;SDS_P2;PMS_P1;PMS_P2;Temp;Humidity;BMP_temperature;BMP_pressure;BME280_temperature;BME280_humidity;BME280_pressure;Samples;Min_cycle;Max_cycle;Signal;HPM_P1;HPM_P2
2022/05/29 00:02:10;;;;;;;30.17;10.30;;;;;;;;;;5093167;28;20047;-72
2022/05/29 00:05:16;;;;;;;24.70;9.82;;;;;;;;;;5093063;28;20296;-70
2022/05/29 00:08:27;;;;;;;28.58;10.50;;;;;;;;;;5093791;28;20047;-71
2022/05/29 00:11:32;;;;;;;20.80;8.85;;;;;;;;;;5092871;28;20058;-71
2022/05/29 00:14:37;;;;;;;36.28;10.75;;;;;;;;;;5093055;28;20040;-71
2022/05/29 00:17:42;;;;;;;31.25;11.18;;;;;;;;;;5093241;28;20051;-72
2022/05/29 00:20:49;;;;;;;28.48;9.73;;;;;;;;;;5092813;28;20040;-72
2022/05/29 00:23:54;;;;;;;32.28;10.95;;;;;;;;;;5093239;28;20044;-71
2022/05/29 00:26:58;;;;;;;27.38;9.30;;;;;;;;;;5092754;28;20039;-72
2022/05/29 00:30:04;;;;;;;25.17;9.65;;;;;;;;;;5091687;28;20059;-72
2022/05/29 00:33:09;;;;;;;26.42;10.38;;;;;;;;;;5092519;28;20051;-72
2022/05/29 00:36:15;;;;;;;33.47;10.45;;;;;;;;;;5092660;28;20039;-72
2022/05/29 00:39:19;;;;;;;27.30;10.25;;;;;;;;;;5092636;28;20063;-72
2022/05/29 00:42:25;;;;;;;27.73;10.82;;;;;;;;;;5092268;28;20035;-72
2022/05/29 00:45:32;;;;;;;26.33;10.02;;;;;;;;;;5092642;28;20498;-72
2022/05/29 00:48:36;;;;;;;28.30;11.63;;;;;;;;;;5092010;28;20043;-72
2022/05/29 00:51:46;;;;;;;25.23;10.18;;;;;;;;;;5092386;28;20055;-71
2022/05/29 00:54:53;;;;;;;27.15;9.82;;;;;;;;;;5092772;28;20043;-72
2022/05/29 00:58:05;;;;;;;24.67;9.70;;;;;;;;;;5092670;28;20040;-73
2022/05/29 01:01:10;;;;;;;28.00;10.40;;;;;;;;;;5091480;28;20040;-71
2022/05/29 01:04:14;;;;;;;24.25;10.30;;;;;;;;;;5091693;28;20039;-71
2022/05/29 01:07:19;;;;;;;23.88;10.43;;;;;;;;;;5091540;28;20047;-73
2022/05/29 01:10:30;;;;;;;23.88;10.50;;;;;;;;;;5091054;28;20055;-71
2022/05/29 01:13:46;;;;;;;28.60;10.40;;;;;;;;;;5092417;28;20039;-71
2022/05/29 01:17:11;;;;;;;22.92;9.13;;;;;;;;;;5092015;28;20277;-71
2022/05/29 01:20:30;;;;;;;26.70;8.57;;;;;;;;;;5081291;28;20491;-72
2022/05/29 01:23:37;;;;;;;24.60;8.55;;;;;;;;;;5091911;28;20040;-72
2022/05/29 01:26:48;;;;;;;19.23;7.80;;;;;;;;;;5091843;28;20240;-72
2022/05/29 01:30:04;;;;;;;25.63;8.32;;;;;;;;;;5091617;28;20048;-72
2022/05/29 01:33:27;;;;;;;25.27;7.55;;;;;;;;;;5091872;28;20046;-72
2022/05/29 01:36:35;;;;;;;25.02;9.32;;;;;;;;;;5091690;28;20397;-72
2022/05/29 01:39:39;;;;;;;26.65;9.98;;;;;;;;;;5090500;28;20036;-72
2022/05/29 01:42:52;;;;;;;24.85;10.43;;;;;;;;;;5091595;28;20036;-71
2022/05/29 01:46:02;;;;;;;33.13;11.05;;;;;;;;;;5091561;28;20051;-72
2022/05/29 01:49:19;;;;;;;25.58;10.68;;;;;;;;;;5091581;28;20051;-73
2022/05/29 01:52:27;;;;;;;26.40;11.13;;;;;;;;;;5091302;28;20399;-72
2022/05/29 01:55:36;;;;;;;31.23;11.32;;;;;;;;;;5091605;28;20059;-72
2022/05/29 01:58:42;;;;;;;34.28;11.57;;;;;;;;;;5090208;28;20050;-72
2022/05/29 02:01:50;;;;;;;30.15;10.50;;;;;;;;;;5091289;28;20035;-72
2022/05/29 02:04:57;;;;;;;24.00;9.57;;;;;;;;;;5091159;28;20498;-72
2022/05/29 02:08:04;;;;;;;29.60;10.82;;;;;;;;;;5090940;28;20390;-72
2022/05/29 02:11:13;;;;;;;27.85;10.88;;;;;;;;;;5091078;28;20051;-72
2022/05/29 02:14:20;;;;;;;23.98;10.70;;;;;;;;;;5090839;28;20039;-72
2022/05/29 02:17:29;;;;;;;29.65;11.88;;;;;;;;;;5090939;28;20058;-72
2022/05/29 02:20:37;;;;;;;30.60;10.30;;;;;;;;;;5091130;28;20047;-72
2022/05/29 02:23:43;;;;;;;28.58;10.05;;;;;;;;;;5090929;28;20047;-72
2022/05/29 02:26:54;;;;;;;24.80;10.40;;;;;;;;;;5090745;28;20043;-72
2022/05/29 02:29:59;;;;;;;29.47;10.40;;;;;;;;;;5091000;28;20051;-72
2022/05/29 02:33:15;;;;;;;31.23;12.45;;;;;;;;;;5090911;28;20399;-72
2022/05/29 02:36:39;;;;;;;27.98;12.10;;;;;;;;;;5090684;28;20043;-72
2022/05/29 02:39:43;;;;;;;33.50;11.38;;;;;;;;;;5090783;28;20059;-72
2022/05/29 02:42:52;;;;;;;30.30;12.13;;;;;;;;;;5090811;28;20043;-72
2022/05/29 02:46:03;;;;;;;35.75;12.18;;;;;;;;;;5089796;28;20051;-72
2022/05/29 02:49:18;;;;;;;25.95;10.00;;;;;;;;;;5090809;28;20051;-73
2022/05/29 02:52:22;;;;;;;29.20;11.07;;;;;;;;;;5090397;28;20071;-72
2022/05/29 02:55:27;;;;;;;31.33;12.63;;;;;;;;;;5090520;28;20039;-72
2022/05/29 02:58:33;;;;;;;22.80;10.65;;;;;;;;;;5090654;28;20047;-72
2022/05/29 03:01:48;;;;;;;30.38;11.48;;;;;;;;;;5090850;28;20102;-72
2022/05/29 03:04:56;;;;;;;28.10;10.70;;;;;;;;;;5089757;28;20051;-72
2022/05/29 03:08:11;;;;;;;27.15;11.32;;;;;;;;;;5090328;28;20063;-72
2022/05/29 03:11:27;;;;;;;27.67;11.07;;;;;;;;;;5093184;28;20051;-73
2022/05/29 03:14:37;;;;;;;25.27;10.50;;;;;;;;;;5094677;28;20039;-72
2022/05/29 03:17:45;;;;;;;30.20;12.10;;;;;;;;;;5094559;28;20407;-73
2022/05/29 03:20:58;;;;;;;32.60;12.45;;;;;;;;;;5094265;28;20043;-72
2022/05/29 03:24:11;;;;;;;25.27;11.63;;;;;;;;;;5094046;28;20041;-72
2022/05/29 03:27:18;;;;;;;29.38;11.70;;;;;;;;;;5094129;28;20047;-72
2022/05/29 03:30:24;;;;;;;32.47;11.00;;;;;;;;;;5093865;28;20423;-72
2022/05/29 03:33:28;;;;;;;24.55;9.73;;;;;;;;;;5094365;28;20050;-73
2022/05/29 03:36:33;;;;;;;29.95;9.90;;;;;;;;;;5094005;28;20058;-72
2022/05/29 03:39:37;;;;;;;24.50;9.88;;;;;;;;;;5093035;28;20048;-72
2022/05/29 03:42:42;;;;;;;28.40;8.95;;;;;;;;;;5094139;28;20376;-72
2022/05/29 03:45:46;;;;;;;18.23;9.10;;;;;;;;;;5093578;28;20048;-71
2022/05/29 03:48:50;;;;;;;24.85;9.73;;;;;;;;;;5093611;28;20040;-72
2022/05/29 03:51:55;;;;;;;27.27;9.68;;;;;;;;;;5093596;28;20051;-71
2022/05/29 03:54:59;;;;;;;27.23;10.10;;;;;;;;;;5093854;28;20032;-72
2022/05/29 03:58:03;;;;;;;29.77;11.00;;;;;;;;;;5093772;28;20043;-73
2022/05/29 04:01:08;;;;;;;35.08;10.70;;;;;;;;;;5093533;28;20059;-72
2022/05/29 04:04:12;;;;;;;34.45;10.93;;;;;;;;;;5092863;28;20498;-72
2022/05/29 04:07:16;;;;;;;41.70;11.20;;;;;;;;;;5093503;28;20068;-72
2022/05/29 04:14:03;;;;;;;30.75;9.32;;;;;;;;;;5070760;28;20055;-72
2022/05/29 04:17:09;;;;;;;25.48;9.45;;;;;;;;;;5070584;28;20135;-72
2022/05/29 04:20:13;;;;;;;22.67;9.57;;;;;;;;;;5092812;28;20044;-72
2022/05/29 04:23:17;;;;;;;29.98;9.73;;;;;;;;;;5093378;28;20392;-72
2022/05/29 04:26:22;;;;;;;26.08;9.30;;;;;;;;;;5093273;28;20040;-72
2022/05/29 04:29:26;;;;;;;28.08;8.73;;;;;;;;;;5092817;28;20060;-71
2022/05/29 04:33:03;;;;;;;30.65;8.38;;;;;;;;;;5093015;28;20044;-72
2022/05/29 04:36:01;;;;;;;33.90;9.43;;;;;;;;;;5092845;28;20130;-73
2022/05/29 04:39:05;;;;;;;46.88;9.38;;;;;;;;;;5093035;28;20032;-71
2022/05/29 04:42:10;;;;;;;23.73;6.38;;;;;;;;;;5092869;28;20032;-71
2022/05/29 04:45:14;;;;;;;25.05;6.75;;;;;;;;;;5092957;28;20399;-72
2022/05/29 04:48:19;;;;;;;26.08;7.60;;;;;;;;;;5092775;28;20035;-72
2022/05/29 04:51:23;;;;;;;20.63;6.13;;;;;;;;;;5091946;28;20059;-72
2022/05/29 04:54:27;;;;;;;31.90;7.28;;;;;;;;;;5092834;28;20035;-72
2022/05/29 04:57:32;;;;;;;32.83;7.65;;;;;;;;;;5092949;28;20039;-72
2022/05/29 05:00:36;;;;;;;22.33;6.38;;;;;;;;;;5091670;28;20036;-72
2022/05/29 05:03:41;;;;;;;28.85;7.07;;;;;;;;;;5092910;28;20055;-71
2022/05/29 05:06:45;;;;;;;23.27;6.70;;;;;;;;;;5092471;28;20043;-71
2022/05/29 05:09:49;;;;;;;17.85;5.82;;;;;;;;;;5091910;28;20040;-71
2022/05/29 05:12:54;;;;;;;30.75;6.03;;;;;;;;;;5091611;28;20051;-72
2022/05/29 05:16:02;;;;;;;28.85;6.20;;;;;;;;;;5092487;28;20039;-72
2022/05/29 05:19:07;;;;;;;23.02;6.22;;;;;;;;;;5092874;28;20040;-72
2022/05/29 05:22:11;;;;;;;28.73;6.07;;;;;;;;;;5092450;28;20032;-72
2022/05/29 05:25:15;;;;;;;21.80;5.97;;;;;;;;;;5092538;28;20045;-72
2022/05/29 05:28:20;;;;;;;23.75;6.30;;;;;;;;;;5092361;28;20061;-71
2022/05/29 05:31:27;;;;;;;31.60;8.70;;;;;;;;;;5092041;28;20047;-72
2022/05/29 05:34:31;;;;;;;27.10;7.57;;;;;;;;;;5091775;28;20032;-71
2022/05/29 05:37:37;;;;;;;28.00;6.10;;;;;;;;;;5091309;28;20048;-71
2022/05/29 05:40:42;;;;;;;22.35;5.47;;;;;;;;;;5092209;28;20040;-72
2022/05/29 05:43:46;;;;;;;19.20;4.95;;;;;;;;;;5092317;28;20059;-71
2022/05/29 05:46:56;;;;;;;17.35;5.32;;;;;;;;;;5091397;28;20044;-72
2022/05/29 05:50:01;;;;;;;22.98;5.35;;;;;;;;;;5092076;28;20494;-72
2022/05/29 05:53:06;;;;;;;16.00;4.82;;;;;;;;;;5092090;28;20048;-71
2022/05/29 05:56:13;;;;;;;18.80;5.38;;;;;;;;;;5092210;28;20044;-72
2022/05/29 05:59:18;;;;;;;15.95;5.03;;;;;;;;;;5090927;28;20044;-72
2022/05/29 06:02:23;;;;;;;23.05;5.22;;;;;;;;;;5094220;28;20032;-71
2022/05/29 06:05:28;;;;;;;20.02;5.00;;;;;;;;;;5091601;28;20051;-72
2022/05/29 06:08:32;;;;;;;18.08;4.88;;;;;;;;;;5091234;28;20047;-72
2022/05/29 06:11:39;;;;;;;18.70;5.10;;;;;;;;;;5091596;28;20055;-72
2022/05/29 06:14:43;;;;;;;23.42;5.32;;;;;;;;;;5091486;28;20040;-71
2022/05/29 06:17:48;;;;;;;22.25;5.57;;;;;;;;;;5091725;28;20040;-72
2022/05/29 06:21:00;;;;;;;19.02;5.15;;;;;;;;;;5091322;28;20036;-72
2022/05/29 06:24:05;;;;;;;25.17;5.78;;;;;;;;;;5091385;28;20041;-72
2022/05/29 06:27:10;;;;;;;26.85;4.80;;;;;;;;;;5091442;28;20044;-72
2022/05/29 06:30:15;;;;;;;13.52;4.07;;;;;;;;;;5091576;28;20047;-71
2022/05/29 06:33:19;;;;;;;15.52;4.53;;;;;;;;;;5090859;28;20059;-72
2022/05/29 06:36:25;;;;;;;23.73;5.43;;;;;;;;;;5091799;28;20047;-71
2022/05/29 06:39:29;;;;;;;19.92;4.88;;;;;;;;;;5091178;28;20040;-73
2022/05/29 06:42:33;;;;;;;24.77;5.25;;;;;;;;;;5091378;28;20040;-71
2022/05/29 06:45:37;;;;;;;25.33;4.93;;;;;;;;;;5093669;28;20040;-71
2022/05/29 06:48:42;;;;;;;13.10;4.45;;;;;;;;;;5096064;28;20040;-73
2022/05/29 06:51:46;;;;;;;21.33;4.35;;;;;;;;;;5095507;28;20050;-72
2022/05/29 06:54:50;;;;;;;18.98;4.82;;;;;;;;;;5095907;28;20496;-72
2022/05/29 06:57:55;;;;;;;16.42;4.60;;;;;;;;;;5095414;28;20036;-71
2022/05/29 07:07:58;;;;;;;20.17;4.65;;;;;;;;;;5095372;28;20051;-71
2022/05/29 07:11:04;;;;;;;21.55;5.70;;;;;;;;;;5094983;28;20091;-72
2022/05/29 07:14:09;;;;;;;18.98;4.68;;;;;;;;;;5094915;28;20040;-73
2022/05/29 07:17:13;;;;;;;18.75;4.85;;;;;;;;;;5095072;28;20039;-72
2022/05/29 07:20:18;;;;;;;19.88;4.60;;;;;;;;;;5082397;28;20514;-72
2022/05/29 07:23:22;;;;;;;18.83;5.63;;;;;;;;;;5095164;28;20594;-72
2022/05/29 07:26:26;;;;;;;14.82;4.95;;;;;;;;;;5094711;28;20043;-72
2022/05/29 07:29:31;;;;;;;16.02;4.20;;;;;;;;;;5094384;28;20036;-73
2022/05/29 07:32:35;;;;;;;19.90;5.10;;;;;;;;;;5094329;28;20052;-72
2022/05/29 07:35:40;;;;;;;17.50;4.47;;;;;;;;;;5094532;28;20492;-70
2022/05/29 07:38:44;;;;;;;13.50;3.58;;;;;;;;;;5094470;28;20032;-72
2022/05/29 07:45:31;;;;;;;18.80;4.65;;;;;;;;;;5071653;28;20040;-73
2022/05/29 07:48:37;;;;;;;13.70;5.05;;;;;;;;;;5071211;28;20583;-77
2022/05/29 07:51:42;;;;;;;21.13;4.80;;;;;;;;;;5081420;28;20055;-72
2022/05/29 07:54:46;;;;;;;21.45;4.18;;;;;;;;;;5093979;28;20028;-71
2022/05/29 07:57:51;;;;;;;17.25;4.22;;;;;;;;;;5093924;28;20392;-73
2022/05/29 08:00:55;;;;;;;12.60;3.63;;;;;;;;;;5093572;28;20036;-72
2022/05/29 08:03:59;;;;;;;20.20;4.60;;;;;;;;;;5093615;28;20040;-67
2022/05/29 08:07:04;;;;;;;14.35;3.85;;;;;;;;;;5093607;28;20036;-67
2022/05/29 08:10:09;;;;;;;17.63;4.30;;;;;;;;;;5092538;28;20032;-67
2022/05/29 08:13:14;;;;;;;20.77;4.93;;;;;;;;;;5093729;28;20056;-66
2022/05/29 08:16:19;;;;;;;20.38;4.18;;;;;;;;;;5093536;28;20047;-66
2022/05/29 08:19:24;;;;;;;15.55;4.38;;;;;;;;;;5093091;28;20040;-67
2022/05/29 08:22:28;;;;;;;11.63;4.15;;;;;;;;;;5092902;28;20040;-67
2022/05/29 08:32:21;;;;;;;16.88;4.50;;;;;;;;;;5087367;28;20507;-69
2022/05/29 08:35:25;;;;;;;14.40;4.30;;;;;;;;;;5093268;28;20032;-67
2022/05/29 08:38:30;;;;;;;19.33;4.35;;;;;;;;;;5093358;28;20048;-67
2022/05/29 08:41:40;;;;;;;11.45;4.03;;;;;;;;;;5092783;28;20043;-68
2022/05/29 08:44:46;;;;;;;25.58;6.50;;;;;;;;;;5092705;28;20055;-67
2022/05/29 08:47:51;;;;;;;17.63;5.63;;;;;;;;;;5092732;28;20043;-67
2022/05/29 08:50:58;;;;;;;35.60;8.38;;;;;;;;;;5092612;28;20496;-63
2022/05/29 08:54:02;;;;;;;10.80;3.90;;;;;;;;;;5092002;28;20535;-63
2022/05/29 08:57:13;;;;;;;10.27;4.10;;;;;;;;;;5092486;28;20040;-64
2022/05/29 09:00:29;;;;;;;29.35;4.45;;;;;;;;;;5092481;28;20044;-64
2022/05/29 09:03:40;;;;;;;24.85;5.22;;;;;;;;;;5091855;28;20492;-64
2022/05/29 09:06:48;;;;;;;14.43;4.93;;;;;;;;;;5092580;28;20039;-66
2022/05/29 09:10:02;;;;;;;18.58;4.50;;;;;;;;;;5092317;28;20028;-64
2022/05/29 09:13:09;;;;;;;17.27;4.72;;;;;;;;;;5091950;28;20051;-64
2022/05/29 09:16:15;;;;;;;15.40;4.68;;;;;;;;;;5092256;28;20047;-65
2022/05/29 09:19:28;;;;;;;13.48;4.35;;;;;;;;;;5091383;28;20043;-64
2022/05/29 09:22:36;;;;;;;12.75;4.38;;;;;;;;;;5092442;28;20047;-64
2022/05/29 09:25:45;;;;;;;17.75;4.57;;;;;;;;;;5091827;28;20032;-64
2022/05/29 09:28:49;;;;;;;22.80;4.90;;;;;;;;;;5092043;28;20036;-64
2022/05/29 09:31:54;;;;;;;12.38;4.55;;;;;;;;;;5091701;28;20062;-63
2022/05/29 09:35:05;;;;;;;19.30;4.80;;;;;;;;;;5091662;28;20039;-64
2022/05/29 09:38:12;;;;;;;18.77;5.32;;;;;;;;;;5091655;28;20055;-65
2022/05/29 09:41:32;;;;;;;20.75;4.70;;;;;;;;;;5091638;28;20035;-63
2022/05/29 09:44:36;;;;;;;16.73;5.17;;;;;;;;;;5090781;28;20051;-64
2022/05/29 09:51:04;;;;;;;19.50;5.70;;;;;;;;;;5091485;28;20032;-64
2022/05/29 09:54:09;;;;;;;18.75;5.50;;;;;;;;;;5091705;28;20043;-64
2022/05/29 09:57:24;;;;;;;18.60;4.93;;;;;;;;;;5091620;28;20040;-64
2022/05/29 10:00:30;;;;;;;13.32;4.72;;;;;;;;;;5091412;28;20048;-64
2022/05/29 10:03:44;;;;;;;17.33;5.00;;;;;;;;;;5091238;28;20040;-64
2022/05/29 10:06:53;;;;;;;17.23;4.93;;;;;;;;;;5091565;28;20507;-65
2022/05/29 10:10:00;;;;;;;19.50;5.20;;;;;;;;;;5091571;28;20046;-62
2022/05/29 10:13:04;;;;;;;17.42;5.10;;;;;;;;;;5091324;28;20058;-64
2022/05/29 10:16:09;;;;;;;12.52;4.78;;;;;;;;;;5091375;28;20059;-64
2022/05/29 10:19:14;;;;;;;11.32;4.97;;;;;;;;;;5091064;28;20036;-65
2022/05/29 10:22:32;;;;;;;14.00;4.68;;;;;;;;;;5090466;28;20418;-64
2022/05/29 10:25:57;;;;;;;16.17;4.80;;;;;;;;;;5091194;28;20040;-64
2022/05/29 10:29:16;;;;;;;9.20;4.85;;;;;;;;;;5090876;28;20051;-65
2022/05/29 10:32:25;;;;;;;19.50;5.78;;;;;;;;;;5090923;28;20044;-64
2022/05/29 10:35:35;;;;;;;18.88;6.30;;;;;;;;;;5091145;28;20400;-65
2022/05/29 10:38:39;;;;;;;19.80;5.43;;;;;;;;;;5090427;28;20028;-64
2022/05/29 10:41:44;;;;;;;16.20;5.00;;;;;;;;;;5090461;28;20043;-64
2022/05/29 10:44:49;;;;;;;12.10;4.78;;;;;;;;;;5090310;28;20059;-65
2022/05/29 10:48:03;;;;;;;27.70;6.22;;;;;;;;;;5090228;28;20059;-64
2022/05/29 10:51:20;;;;;;;17.77;5.22;;;;;;;;;;5090730;28;20040;-65
2022/05/29 10:54:37;;;;;;;16.35;4.60;;;;;;;;;;5091132;28;20062;-65
2022/05/29 10:57:41;;;;;;;15.95;5.72;;;;;;;;;;5090941;28;20036;-64
2022/05/29 11:00:49;;;;;;;14.43;4.85;;;;;;;;;;5090941;28;20036;-64
2022/05/29 11:03:59;;;;;;;16.08;5.60;;;;;;;;;;5091085;28;20040;-65
2022/05/29 11:07:23;;;;;;;17.42;4.82;;;;;;;;;;5091327;28;20524;-64
2022/05/29 11:10:36;;;;;;;18.65;4.60;;;;;;;;;;5090852;28;20032;-65
2022/05/29 11:14:00;;;;;;;13.95;3.90;;;;;;;;;;5090827;28;20048;-64
2022/05/29 11:17:08;;;;;;;14.50;4.15;;;;;;;;;;5090615;28;20050;-65
2022/05/29 11:20:12;;;;;;;12.98;4.28;;;;;;;;;;5090842;28;20372;-64
2022/05/29 11:23:26;;;;;;;21.42;4.35;;;;;;;;;;5090793;28;20531;-64
2022/05/29 11:26:33;;;;;;;14.43;4.43;;;;;;;;;;5090776;28;20040;-65
2022/05/29 11:29:39;;;;;;;18.02;4.63;;;;;;;;;;5089641;28;20372;-64
2022/05/29 11:32:43;;;;;;;16.70;4.55;;;;;;;;;;5093684;28;20586;-64
2022/05/29 11:35:47;;;;;;;26.08;4.70;;;;;;;;;;5094390;28;20032;-65
2022/05/29 11:38:52;;;;;;;28.02;4.30;;;;;;;;;;5094086;28;20036;-64
2022/05/29 11:41:56;;;;;;;36.60;5.63;;;;;;;;;;5094344;28;20032;-64
2022/05/29 11:45:03;;;;;;;28.38;5.30;;;;;;;;;;5094068;28;20051;-64
2022/05/29 11:51:42;;;;;;;30.60;6.63;;;;;;;;;;5093967;28;20377;-64
2022/05/29 11:55:10;;;;;;;23.00;4.95;;;;;;;;;;5093897;28;20053;-65
2022/05/29 11:58:14;;;;;;;28.17;5.63;;;;;;;;;;5093831;28;20047;-64
2022/05/29 12:01:26;;;;;;;32.53;5.53;;;;;;;;;;5093029;28;20055;-64
2022/05/29 12:05:06;;;;;;;20.40;4.15;;;;;;;;;;5093927;28;20050;-64
2022/05/29 12:08:16;;;;;;;39.85;5.03;;;;;;;;;;5053283;28;20438;-65
2022/05/29 12:11:39;;;;;;;32.13;4.93;;;;;;;;;;5093877;28;20036;-65
2022/05/29 12:15:04;;;;;;;29.88;5.00;;;;;;;;;;5093551;28;20047;-65
2022/05/29 12:18:11;;;;;;;22.20;4.47;;;;;;;;;;5093347;28;20396;-64
2022/05/29 12:21:23;;;;;;;27.10;4.40;;;;;;;;;;5093542;28;20407;-64
2022/05/29 12:24:29;;;;;;;13.70;3.72;;;;;;;;;;5093465;28;20391;-63
2022/05/29 12:27:33;;;;;;;20.23;4.13;;;;;;;;;;5093260;28;20426;-64
2022/05/29 12:30:42;;;;;;;21.02;4.20;;;;;;;;;;5093452;28;20036;-64
2022/05/29 12:33:47;;;;;;;26.52;4.85;;;;;;;;;;5093159;28;20044;-64
2022/05/29 12:37:11;;;;;;;13.32;3.40;;;;;;;;;;5092712;28;20036;-64
2022/05/29 12:40:16;;;;;;;35.42;4.63;;;;;;;;;;5097291;28;20032;-64
2022/05/29 12:43:39;;;;;;;23.00;4.70;;;;;;;;;;5092889;28;20044;-64
2022/05/29 12:47:03;;;;;;;17.77;4.28;;;;;;;;;;5093028;28;20058;-63
2022/05/29 12:50:19;;;;;;;16.42;4.30;;;;;;;;;;5098609;28;20036;-64
2022/05/29 12:53:50;;;;;;;19.85;3.67;;;;;;;;;;5092008;28;20063;-64
2022/05/29 12:57:13;;;;;;;20.70;3.97;;;;;;;;;;5092659;28;20040;-64
2022/05/29 13:00:36;;;;;;;12.80;3.50;;;;;;;;;;5092638;28;20062;-64
2022/05/29 13:04:03;;;;;;;15.98;4.00;;;;;;;;;;5080206;28;20043;-64
2022/05/29 13:07:26;;;;;;;18.83;4.10;;;;;;;;;;5092913;28;20044;-64
2022/05/29 13:10:36;;;;;;;14.25;3.78;;;;;;;;;;5092430;28;20047;-64
2022/05/29 13:13:46;;;;;;;25.00;4.65;;;;;;;;;;5092241;28;20632;-64
2022/05/29 13:17:01;;;;;;;16.33;4.90;;;;;;;;;;5092590;28;20487;-65
2022/05/29 13:20:09;;;;;;;23.77;4.60;;;;;;;;;;5092134;28;20270;-64
2022/05/29 13:23:14;;;;;;;23.13;4.72;;;;;;;;;;5092072;28;20036;-65
2022/05/29 13:26:19;;;;;;;16.23;4.30;;;;;;;;;;5092307;28;20036;-64
2022/05/29 13:29:38;;;;;;;16.48;4.43;;;;;;;;;;5092055;28;20051;-64
2022/05/29 13:32:42;;;;;;;17.95;3.70;;;;;;;;;;5092132;28;20056;-64
2022/05/29 13:35:47;;;;;;;16.90;3.55;;;;;;;;;;5091363;28;20036;-65
2022/05/29 13:38:51;;;;;;;16.13;3.72;;;;;;;;;;5092260;28;20044;-65
2022/05/29 13:42:00;;;;;;;31.75;5.05;;;;;;;;;;5091982;28;20395;-64
2022/05/29 13:45:34;;;;;;;12.73;3.35;;;;;;;;;;5091662;28;20048;-64
2022/05/29 13:48:57;;;;;;;13.25;3.70;;;;;;;;;;5096866;28;20043;-65
2022/05/29 13:52:06;;;;;;;14.70;3.22;;;;;;;;;;5090914;28;20055;-65
2022/05/29 13:55:17;;;;;;;27.13;4.72;;;;;;;;;;5090486;28;20412;-64
2022/05/29 14:05:26;;;;;;;15.07;3.58;;;;;;;;;;5091626;28;20594;-64
2022/05/29 14:08:31;;;;;;;16.40;3.70;;;;;;;;;;5091300;28;20062;-64
2022/05/29 14:11:41;;;;;;;22.70;3.67;;;;;;;;;;5091683;28;20039;-64
2022/05/29 14:14:46;;;;;;;19.40;4.18;;;;;;;;;;5091776;28;20047;-64
2022/05/29 14:17:50;;;;;;;12.88;3.30;;;;;;;;;;5091401;28;20039;-64
2022/05/29 14:21:13;;;;;;;15.07;3.38;;;;;;;;;;5091557;28;20050;-63
2022/05/29 14:24:56;;;;;;;12.20;3.47;;;;;;;;;;5091427;28;20053;-65
2022/05/29 14:28:20;;;;;;;15.38;3.85;;;;;;;;;;5048552;28;20037;-65
2022/05/29 14:31:40;;;;;;;13.45;3.28;;;;;;;;;;5053816;28;20041;-64
2022/05/29 14:35:03;;;;;;;13.68;3.70;;;;;;;;;;5091085;28;20047;-64
2022/05/29 14:38:07;;;;;;;13.93;3.75;;;;;;;;;;5091149;28;20040;-64
2022/05/29 14:41:18;;;;;;;16.55;3.35;;;;;;;;;;5090322;28;20054;-63
2022/05/29 14:44:34;;;;;;;11.32;3.30;;;;;;;;;;5090847;28;20510;-64
2022/05/29 14:47:47;;;;;;;16.80;3.70;;;;;;;;;;5090142;28;20044;-64
2022/05/29 14:50:54;;;;;;;24.73;4.78;;;;;;;;;;5090938;28;20468;-63
2022/05/29 14:54:02;;;;;;;13.63;3.28;;;;;;;;;;5090255;28;20407;-63
2022/05/29 14:57:07;;;;;;;14.25;3.13;;;;;;;;;;5091115;28;20051;-63
2022/05/29 15:00:22;;;;;;;18.35;4.38;;;;;;;;;;5090960;28;20053;-64
2022/05/29 15:03:28;;;;;;;14.73;3.40;;;;;;;;;;5090575;28;20051;-63
2022/05/29 15:10:32;;;;;;;14.88;3.33;;;;;;;;;;5094395;28;20053;-63
2022/05/29 15:13:56;;;;;;;12.50;3.25;;;;;;;;;;5094705;28;20051;-64
2022/05/29 15:17:01;;;;;;;8.95;3.03;;;;;;;;;;5094555;28;20039;-63
2022/05/29 15:27:02;;;;;;;19.27;3.58;;;;;;;;;;5094251;28;20036;-63
2022/05/29 15:30:10;;;;;;;13.93;3.13;;;;;;;;;;5093353;28;20040;-63
2022/05/29 15:33:16;;;;;;;14.07;2.92;;;;;;;;;;5094262;28;20059;-64
2022/05/29 15:36:30;;;;;;;17.30;3.67;;;;;;;;;;5093826;28;20032;-63
2022/05/29 15:39:54;;;;;;;21.50;3.97;;;;;;;;;;5093318;28;20028;-63
2022/05/29 15:43:02;;;;;;;11.38;2.88;;;;;;;;;;5093887;28;20047;-65
2022/05/29 15:46:13;;;;;;;11.65;3.15;;;;;;;;;;5093977;28;20054;-64
2022/05/29 15:49:36;;;;;;;17.33;3.65;;;;;;;;;;5093700;28;20360;-64
2022/05/29 15:52:51;;;;;;;14.93;2.85;;;;;;;;;;5094065;28;20395;-64
2022/05/29 15:56:04;;;;;;;16.15;3.28;;;;;;;;;;5093738;28;20040;-62
2022/05/29 15:59:08;;;;;;;16.67;3.30;;;;;;;;;;5093821;28;20044;-63
2022/05/29 16:02:14;;;;;;;13.85;3.28;;;;;;;;;;5093865;28;20487;-63
2022/05/29 16:05:36;;;;;;;16.55;3.33;;;;;;;;;;5093447;28;20039;-63
2022/05/29 16:08:41;;;;;;;9.80;2.60;;;;;;;;;;5093585;28;20391;-64
2022/05/29 16:11:45;;;;;;;11.30;2.70;;;;;;;;;;5093690;28;20036;-64
2022/05/29 16:14:51;;;;;;;15.68;3.30;;;;;;;;;;5093477;28;20040;-64
2022/05/29 16:18:00;;;;;;;14.07;2.75;;;;;;;;;;5092926;28;20032;-64
2022/05/29 16:21:09;;;;;;;13.05;3.28;;;;;;;;;;5093384;28;20032;-64
2022/05/29 16:24:17;;;;;;;13.55;3.83;;;;;;;;;;5093395;28;20439;-62
2022/05/29 16:27:22;;;;;;;17.95;3.50;;;;;;;;;;5092475;28;20400;-63
2022/05/29 16:30:32;;;;;;;14.88;3.45;;;;;;;;;;5092764;28;20043;-63
2022/05/29 16:33:36;;;;;;;16.38;3.13;;;;;;;;;;5092790;28;20052;-63
2022/05/29 16:48:07;;;;;;;13.57;2.92;;;;;;;;;;5092771;28;20032;-63
2022/05/29 16:51:06;;;;;;;16.15;3.13;;;;;;;;;;5092841;28;20391;-64
2022/05/29 16:54:27;;;;;;;15.35;3.45;;;;;;;;;;5091723;28;20417;-64
2022/05/29 16:57:35;;;;;;;16.00;3.55;;;;;;;;;;5092639;28;20155;-63
2022/05/29 17:00:51;;;;;;;12.10;3.20;;;;;;;;;;5092939;28;20407;-63
2022/05/29 17:03:56;;;;;;;21.13;3.47;;;;;;;;;;5092555;28;20498;-63
2022/05/29 17:07:11;;;;;;;18.15;3.60;;;;;;;;;;5080374;28;20045;-62
2022/05/29 17:10:24;;;;;;;16.35;3.13;;;;;;;;;;5092305;28;20036;-64
2022/05/29 17:13:29;;;;;;;15.38;3.33;;;;;;;;;;5092169;28;20055;-63
2022/05/29 17:16:33;;;;;;;17.33;3.33;;;;;;;;;;5092267;28;20044;-63
2022/05/29 17:19:37;;;;;;;15.85;3.28;;;;;;;;;;5091278;28;20032;-63
2022/05/29 17:22:51;;;;;;;13.98;3.22;;;;;;;;;;5091522;28;20506;-63
2022/05/29 17:26:09;;;;;;;11.93;3.05;;;;;;;;;;5091038;28;20028;-64
2022/05/29 17:29:22;;;;;;;20.02;3.45;;;;;;;;;;5090729;28;20051;-63
2022/05/29 17:32:29;;;;;;;18.08;3.30;;;;;;;;;;5092093;28;20039;-63
2022/05/29 17:35:37;;;;;;;18.80;3.25;;;;;;;;;;5091737;28;20040;-63
2022/05/29 17:38:45;;;;;;;17.88;3.20;;;;;;;;;;5091179;28;20028;-63
2022/05/29 17:41:49;;;;;;;14.85;2.90;;;;;;;;;;5091988;28;20393;-65
2022/05/29 17:44:56;;;;;;;19.88;3.58;;;;;;;;;;5091535;28;20051;-63
2022/05/29 17:48:07;;;;;;;12.32;3.00;;;;;;;;;;5091408;28;20044;-64
2022/05/29 17:51:17;;;;;;;15.57;3.33;;;;;;;;;;5091821;28;20032;-63
2022/05/29 17:54:29;;;;;;;12.23;3.10;;;;;;;;;;5091330;28;20052;-63
2022/05/29 17:57:35;;;;;;;15.93;3.70;;;;;;;;;;5090872;28;20385;-63
2022/05/29 18:00:40;;;;;;;15.00;3.30;;;;;;;;;;5091196;28;20480;-64
2022/05/29 18:03:44;;;;;;;19.42;3.72;;;;;;;;;;5091118;28;20701;-62
2022/05/29 18:06:49;;;;;;;18.95;3.78;;;;;;;;;;5091203;28;20032;-63
2022/05/29 18:09:53;;;;;;;23.92;3.70;;;;;;;;;;5091030;28;20044;-64
2022/05/29 18:12:58;;;;;;;17.85;2.88;;;;;;;;;;5091181;28;20122;-63
2022/05/29 18:16:02;;;;;;;19.83;4.57;;;;;;;;;;5091240;28;20036;-63
2022/05/29 18:19:06;;;;;;;16.67;3.42;;;;;;;;;;5091173;28;20043;-62
2022/05/29 18:22:11;;;;;;;15.43;4.20;;;;;;;;;;5091118;28;20036;-63
2022/05/29 18:25:16;;;;;;;18.05;3.85;;;;;;;;;;5091061;28;20069;-63
2022/05/29 18:28:21;;;;;;;14.30;3.28;;;;;;;;;;5091010;28;20032;-63
2022/05/29 18:31:25;;;;;;;12.38;2.90;;;;;;;;;;5090946;28;20047;-63
2022/05/29 18:34:30;;;;;;;18.98;3.85;;;;;;;;;;5091865;28;20106;-74
2022/05/29 18:37:35;;;;;;;19.48;3.25;;;;;;;;;;5091076;28;20036;-75
2022/05/29 18:40:39;;;;;;;52.33;28.38;;;;;;;;;;5097069;28;20032;-75
2022/05/29 18:43:43;;;;;;;35.78;21.52;;;;;;;;;;5099308;28;20118;-74
2022/05/29 18:46:48;;;;;;;23.17;9.98;;;;;;;;;;5102001;28;20051;-75
2022/05/29 18:49:54;;;;;;;21.05;4.85;;;;;;;;;;5099845;28;20036;-74
2022/05/29 18:53:00;;;;;;;18.83;3.75;;;;;;;;;;5100886;28;20048;-74
2022/05/29 18:56:04;;;;;;;26.65;4.40;;;;;;;;;;5098528;28;20028;-74
2022/05/29 18:59:10;;;;;;;16.80;3.42;;;;;;;;;;5097992;28;20040;-74
2022/05/29 19:02:15;;;;;;;15.82;3.45;;;;;;;;;;5097130;28;20036;-75
2022/05/29 19:05:19;;;;;;;16.35;3.20;;;;;;;;;;5097835;28;20036;-75
2022/05/29 19:08:24;;;;;;;12.95;4.07;;;;;;;;;;5098089;28;20036;-74
2022/05/29 19:11:29;;;;;;;22.25;4.30;;;;;;;;;;5100492;28;20036;-75
2022/05/29 19:14:33;;;;;;;14.65;3.58;;;;;;;;;;5097575;28;20387;-74
2022/05/29 19:21:00;;;;;;;17.48;4.30;;;;;;;;;;5099673;28;20040;-74
2022/05/29 19:24:06;;;;;;;17.77;5.80;;;;;;;;;;5099625;28;20043;-75
2022/05/29 19:27:10;;;;;;;17.13;5.05;;;;;;;;;;5100935;28;20396;-74
2022/05/29 19:30:17;;;;;;;17.20;4.80;;;;;;;;;;5100150;28;20058;-75
2022/05/29 19:33:22;;;;;;;14.25;4.38;;;;;;;;;;5101057;28;20044;-75